createdAt,value
2018-02-15T00:00:19.035Z,68.35
2018-02-15T00:01:28.507Z,69.38
2018-02-15T00:02:38.174Z,68.25
2018-02-15T00:03:48.026Z,67.68
2018-02-15T00:04:57.487Z,68.25
2018-02-15T00:06:06.939Z,68.35
2018-02-15T00:07:17.093Z,68.15
2018-02-15T00:08:26.543Z,67.4
2018-02-15T00:09:36.142Z,67.21
2018-02-15T00:10:45.959Z,68.35
2018-02-15T00:11:55.491Z,68.25
2018-02-15T00:13:05.608Z,67.21
2018-02-15T00:14:15.151Z,67.4
2018-02-15T00:15:24.594Z,68.25
2018-02-15T00:16:34.314Z,67.68
2018-02-15T00:17:43.499Z,67.11
2018-02-15T00:18:52.734Z,67.58
2018-02-15T00:20:02.186Z,67.4
2018-02-15T00:21:12.167Z,67.77
2018-02-15T00:22:21.876Z,67.11
2018-02-15T00:23:31.324Z,68.35
2018-02-15T00:24:40.508Z,68.35
2018-02-15T00:25:49.962Z,67.87
2018-02-15T00:26:59.412Z,68.15
2018-02-15T00:28:08.888Z,67.58
2018-02-15T00:29:18.335Z,66.74
2018-02-15T00:30:27.785Z,65.97
2018-02-15T00:31:37.279Z,66.35
2018-02-15T00:32:47.277Z,67.3
2018-02-15T00:33:56.992Z,67.58
2018-02-15T00:35:06.449Z,66.83
2018-02-15T00:36:15.951Z,67.11
2018-02-15T00:37:25.398Z,67.11
2018-02-15T00:38:35.374Z,67.87
2018-02-15T00:39:44.832Z,68.35
2018-02-15T00:40:53.762Z,67.11
2018-02-15T00:42:03.478Z,67.58
2018-02-15T00:43:13.190Z,67.58
2018-02-15T00:44:22.635Z,66.54
2018-02-15T00:45:31.931Z,66.64
2018-02-15T00:46:41.380Z,66.54
2018-02-15T00:47:50.831Z,67.02
2018-02-15T00:49:00.576Z,67.3
2018-02-15T00:50:09.499Z,67.68
2018-02-15T00:51:18.949Z,67.96
2018-02-15T00:52:28.658Z,67.21
2018-02-15T00:53:38.660Z,66.93
2018-02-15T00:54:48.398Z,67.68
2018-02-15T00:55:57.850Z,67.87
2018-02-15T00:57:06.766Z,67.58
2018-02-15T00:58:16.750Z,68.15
2018-02-15T00:59:26.729Z,68.06
2018-02-15T01:00:35.958Z,67.49
2018-02-15T01:01:45.415Z,66.74
2018-02-15T01:02:55.393Z,66.83
2018-02-15T01:04:05.149Z,66.26
2018-02-15T01:05:14.868Z,67.11
2018-02-15T01:06:24.319Z,67.21
2018-02-15T01:07:33.561Z,67.49
2018-02-15T01:08:43.008Z,68.06
2018-02-15T01:09:52.818Z,67.11
2018-02-15T01:11:02.266Z,66.93
2018-02-15T01:12:12.039Z,66.74
2018-02-15T01:13:21.625Z,66.93
2018-02-15T01:14:31.072Z,66.93
2018-02-15T01:15:40.589Z,66.83
2018-02-15T01:16:50.035Z,66.83
2018-02-15T01:17:59.218Z,66.45
2018-02-15T01:19:09.233Z,65.97
2018-02-15T01:20:18.980Z,65.88
2018-02-15T01:21:28.686Z,66.07
2018-02-15T01:22:37.937Z,66.35
2018-02-15T01:23:47.673Z,66.26
2018-02-15T01:24:56.875Z,65.78
2018-02-15T01:26:06.630Z,66.35
2018-02-15T01:27:16.608Z,66.83
2018-02-15T01:28:26.060Z,66.93
2018-02-15T01:29:35.300Z,66.35
2018-02-15T01:30:44.554Z,66.93
2018-02-15T01:31:54.262Z,66.83
2018-02-15T01:33:03.979Z,66.93
2018-02-15T01:34:13.712Z,67.11
2018-02-15T01:35:23.667Z,66.54
2018-02-15T01:36:32.848Z,66.16
2018-02-15T01:37:42.418Z,65.78
2018-02-15T01:38:52.196Z,66.07
2018-02-15T01:40:02.172Z,64.55
2018-02-15T01:41:11.618Z,65.22
2018-02-15T01:42:21.105Z,65.97
2018-02-15T01:43:31.089Z,65.69
2018-02-15T01:44:41.322Z,65.5
2018-02-15T01:45:50.638Z,64.84
2018-02-15T01:47:00.198Z,65.31
2018-02-15T01:48:09.954Z,66.26
2018-02-15T01:49:19.976Z,66.07
2018-02-15T01:50:29.160Z,65.88
2018-02-15T01:51:38.876Z,65.69
2018-02-15T01:52:48.063Z,65.03
2018-02-15T01:53:57.547Z,65.31
2018-02-15T01:55:06.998Z,65.5
2018-02-15T01:56:16.925Z,65.31
2018-02-15T01:57:26.443Z,65.03
2018-02-15T01:58:36.183Z,65.41
2018-02-15T01:59:45.944Z,65.59
2018-02-15T02:00:55.445Z,65.69
2018-02-15T02:02:04.690Z,65.31
2018-02-15T02:03:14.409Z,65.31
2018-02-15T02:04:24.289Z,65.12
2018-02-15T02:05:33.544Z,65.41
2018-02-15T02:06:42.490Z,64.55
2018-02-15T02:07:52.094Z,65.12
2018-02-15T02:09:02.077Z,64.46
2018-02-15T02:10:11.274Z,64.55
2018-02-15T02:11:21.261Z,64.55
2018-02-15T02:12:30.714Z,64.46
2018-02-15T02:13:40.426Z,64.74
2018-02-15T02:14:49.879Z,65.12
2018-02-15T02:15:59.067Z,64.55
2018-02-15T02:17:08.527Z,63.79
2018-02-15T02:18:17.989Z,63.98
2018-02-15T02:19:27.450Z,64.36
2018-02-15T02:20:36.641Z,64.84
2018-02-15T02:21:46.365Z,63.7
2018-02-15T02:22:56.085Z,64.08
2018-02-15T02:24:05.816Z,64.74
2018-02-15T02:25:15.006Z,63.89
2018-02-15T02:26:24.464Z,64.27
2018-02-15T02:27:34.458Z,63.89
2018-02-15T02:28:43.655Z,64.08
2018-02-15T02:29:53.115Z,64.27
2018-02-15T02:31:02.863Z,64.55
2018-02-15T02:32:12.317Z,64.55
2018-02-15T02:33:21.780Z,64.74
2018-02-15T02:34:31.773Z,64.55
2018-02-15T02:35:41.772Z,64.08
2018-02-15T02:36:51.237Z,63.23
2018-02-15T02:38:00.961Z,63.92
2018-02-15T02:39:10.685Z,64.78
2018-02-15T02:40:20.145Z,64.84
2018-02-15T02:41:29.598Z,64.65
2018-02-15T02:42:39.051Z,65.31
2018-02-15T02:43:48.772Z,64.84
2018-02-15T02:44:58.215Z,64.55
2018-02-15T02:46:07.665Z,64.65
2018-02-15T02:47:16.854Z,63.6
2018-02-15T02:48:26.588Z,63.6
2018-02-15T02:49:36.039Z,64.08
2018-02-15T02:50:45.227Z,64.93
2018-02-15T02:51:54.680Z,64.11
2018-02-15T02:53:04.399Z,64.65
2018-02-15T02:54:14.117Z,64.68
2018-02-15T02:55:23.832Z,63.89
2018-02-15T02:56:33.557Z,64.49
2018-02-15T02:57:43.023Z,64.4
2018-02-15T02:58:52.722Z,64.59
2018-02-15T03:00:02.451Z,64.78
2018-02-15T03:01:11.640Z,64.87
2018-02-15T03:02:21.358Z,65.44
2018-02-15T03:03:31.343Z,64.68
2018-02-15T03:04:41.329Z,64.55
2018-02-15T03:05:51.055Z,64.74
2018-02-15T03:07:00.239Z,64.17
2018-02-15T03:08:09.425Z,64.65
2018-02-15T03:09:18.616Z,64.84
2018-02-15T03:10:28.064Z,65.22
2018-02-15T03:11:37.515Z,64.84
2018-02-15T03:12:47.230Z,64.93
2018-02-15T03:13:56.675Z,65.31
2018-02-15T03:15:05.866Z,65.41
2018-02-15T03:16:15.316Z,66.07
2018-02-15T03:17:24.761Z,65.5
2018-02-15T03:18:34.212Z,64.65
2018-02-15T03:19:43.396Z,64.65
2018-02-15T03:20:52.580Z,64.59
2018-02-15T03:22:02.555Z,64.55
2018-02-15T03:23:11.743Z,65.34
2018-02-15T03:24:21.457Z,64.59
2018-02-15T03:25:30.636Z,64.74
2018-02-15T03:26:40.350Z,65.69
2018-02-15T03:27:49.794Z,65.82
2018-02-15T03:28:59.239Z,65.41
2018-02-15T03:30:08.951Z,65.5
2018-02-15T03:31:18.936Z,65.22
2018-02-15T03:32:28.648Z,65.59
2018-02-15T03:33:38.366Z,65.82
2018-02-15T03:34:47.289Z,66.16
2018-02-15T03:35:56.472Z,66.07
2018-02-15T03:37:05.922Z,65.59
2018-02-15T03:38:15.653Z,66.26
2018-02-15T03:39:25.631Z,66.83
2018-02-15T03:40:35.612Z,67.21
2018-02-15T03:41:45.325Z,67.11
2018-02-15T03:42:54.775Z,67.4
2018-02-15T03:44:04.757Z,68.44
2018-02-15T03:45:14.203Z,70.05
2018-02-15T03:46:23.673Z,70.15
2018-02-15T03:47:33.385Z,70.9
2018-02-15T03:48:43.361Z,71.95
2018-02-15T03:49:52.547Z,71.95
2018-02-15T03:51:01.992Z,72.71
2018-02-15T03:52:11.711Z,73.46
2018-02-15T03:53:21.421Z,74.51
2018-02-15T03:54:30.872Z,76.21
2018-02-15T03:55:40.588Z,77.35
2018-02-15T03:56:50.569Z,77.54
2018-02-15T03:58:00.285Z,78.2
2018-02-15T03:59:10.270Z,78.77
2018-02-15T04:00:19.186Z,78.67
2018-02-15T04:01:28.367Z,79.25
2018-02-15T04:02:37.808Z,80.95
2018-02-15T04:03:47.515Z,82.47
2018-02-15T04:04:56.968Z,83.56
2018-02-15T04:06:06.418Z,85.55
2018-02-15T04:07:15.339Z,87.35
2018-02-15T04:08:24.520Z,88.11
2018-02-15T04:09:33.969Z,89.06
2018-02-15T04:10:43.679Z,90.29
2018-02-15T04:11:53.657Z,91.05
2018-02-15T04:13:03.112Z,91.71
2018-02-15T04:14:12.834Z,92.19
2018-02-15T04:15:22.812Z,93.23
2018-02-15T04:16:32.524Z,94.04
2018-02-15T04:17:42.003Z,94.98
2018-02-15T04:18:50.889Z,95.98
2018-02-15T04:20:00.876Z,96.02
2018-02-15T04:21:10.587Z,96.78
2018-02-15T04:22:20.294Z,97.63
2018-02-15T04:23:29.507Z,98.58
2018-02-15T04:24:39.218Z,99.43
2018-02-15T04:25:48.666Z,99.33
2018-02-15T04:26:58.115Z,99.99
2018-02-15T04:28:07.567Z,99.99
2018-02-15T04:29:16.747Z,99.99
2018-02-15T04:30:26.733Z,99.99
2018-02-15T04:31:35.918Z,99.99
2018-02-15T04:32:45.898Z,99.99
2018-02-15T04:33:55.627Z,99.99
2018-02-15T04:35:04.807Z,99.99
2018-02-15T04:36:13.993Z,99.99
2018-02-15T04:37:23.446Z,99.99
2018-02-15T04:38:32.896Z,99.99
2018-02-15T04:39:42.080Z,99.99
2018-02-15T04:40:51.264Z,99.99
2018-02-15T04:42:00.447Z,99.99
2018-02-15T04:43:10.158Z,99.99
2018-02-15T04:44:19.341Z,99.99
2018-02-15T04:45:28.255Z,99.99
2018-02-15T04:46:37.440Z,99.99
2018-02-15T04:47:46.619Z,99.99
2018-02-15T04:48:56.067Z,99.99
2018-02-15T04:50:05.779Z,99.99
2018-02-15T04:51:15.229Z,99.99
2018-02-15T04:52:24.414Z,99.99
2018-02-15T04:53:33.336Z,99.99
2018-02-15T04:54:42.790Z,99.99
2018-02-15T04:55:51.974Z,99.99
2018-02-15T04:57:01.747Z,99.99
2018-02-15T04:58:11.199Z,99.99
2018-02-15T04:59:21.180Z,99.99
2018-02-15T05:00:31.168Z,99.99
2018-02-15T05:01:40.651Z,99.99
2018-02-15T05:02:50.069Z,99.99
2018-02-15T05:03:59.252Z,99.99
2018-02-15T05:05:08.703Z,99.99
2018-02-15T05:06:18.537Z,99.99
2018-02-15T05:07:27.984Z,99.99
2018-02-15T05:08:37.431Z,99.99
2018-02-15T05:09:46.877Z,99.99
2018-02-15T05:10:56.057Z,99.99
2018-02-15T05:12:05.869Z,99.99
2018-02-15T05:13:15.337Z,99.99
2018-02-15T05:14:24.786Z,99.99
2018-02-15T05:15:34.663Z,99.99
2018-02-15T05:16:44.110Z,99.99
2018-02-15T05:17:53.817Z,99.99
2018-02-15T05:19:03.792Z,99.99
2018-02-15T05:20:13.512Z,99.99
2018-02-15T05:21:23.225Z,99.99
2018-02-15T05:22:32.686Z,99.99
2018-02-15T05:23:41.641Z,99.99
2018-02-15T05:24:51.082Z,99.99
2018-02-15T05:26:00.533Z,99.99
2018-02-15T05:27:10.509Z,99.99
2018-02-15T05:28:19.438Z,99.99
2018-02-15T05:29:29.217Z,99.99
2018-02-15T05:30:38.995Z,99.99
2018-02-15T05:31:48.707Z,99.99
2018-02-15T05:32:58.425Z,99.99
2018-02-15T05:34:08.134Z,99.99
2018-02-15T05:35:18.108Z,99.99
2018-02-15T05:36:27.558Z,99.99
2018-02-15T05:37:37.004Z,99.99
2018-02-15T05:38:46.714Z,99.99
2018-02-15T05:39:56.729Z,99.99
2018-02-15T05:41:05.905Z,99.99
2018-02-15T05:42:15.621Z,99.99
2018-02-15T05:43:25.598Z,99.99
2018-02-15T05:44:35.577Z,99.99
2018-02-15T05:45:45.622Z,99.99
2018-02-15T05:46:55.219Z,99.99
2018-02-15T05:48:04.677Z,99.99
2018-02-15T05:49:13.861Z,99.99
2018-02-15T05:50:23.902Z,99.99
2018-02-15T05:51:33.346Z,99.99
2018-02-15T05:52:43.322Z,99.99
2018-02-15T05:53:52.852Z,99.99
2018-02-15T05:55:02.568Z,99.99
2018-02-15T05:56:12.271Z,99.99
2018-02-15T05:57:22.227Z,99.99
2018-02-15T05:58:31.962Z,99.99
2018-02-15T05:59:41.729Z,99.99
2018-02-15T06:00:51.187Z,99.99
2018-02-15T06:02:00.640Z,99.99
2018-02-15T06:03:09.827Z,99.99
2018-02-15T06:04:20.047Z,99.99
2018-02-15T06:05:29.277Z,99.99
2018-02-15T06:06:39.075Z,99.99
2018-02-15T06:07:48.580Z,99.99
2018-02-15T06:08:57.760Z,99.99
2018-02-15T06:10:07.547Z,99.99
2018-02-15T06:11:17.039Z,99.99
2018-02-15T06:12:27.092Z,99.99
2018-02-15T06:13:36.604Z,99.99
2018-02-15T06:14:46.580Z,99.99
2018-02-15T06:15:55.587Z,99.99
2018-02-15T06:17:05.300Z,99.99
2018-02-15T06:18:14.823Z,99.99
2018-02-15T06:19:24.556Z,99.99
2018-02-15T06:20:34.535Z,99.99
2018-02-15T06:21:43.979Z,99.99
2018-02-15T06:22:53.551Z,99.99
2018-02-15T06:24:03.006Z,99.99
2018-02-15T06:25:12.201Z,99.99
2018-02-15T06:26:21.918Z,99.99
2018-02-15T06:27:31.372Z,99.99
2018-02-15T06:28:40.819Z,99.99
2018-02-15T06:29:50.005Z,99.99
2018-02-15T06:30:59.723Z,99.99
2018-02-15T06:32:08.642Z,99.99
2018-02-15T06:33:18.090Z,99.99
2018-02-15T06:34:27.539Z,99.99
2018-02-15T06:35:37.573Z,99.99
2018-02-15T06:36:47.056Z,99.99
2018-02-15T06:37:56.869Z,99.99
2018-02-15T06:39:06.858Z,99.99
2018-02-15T06:40:16.100Z,99.99
2018-02-15T06:41:25.823Z,99.99
2018-02-15T06:42:35.285Z,99.99
2018-02-15T06:43:44.696Z,99.99
2018-02-15T06:44:54.450Z,99.99
2018-02-15T06:46:04.168Z,99.99
2018-02-15T06:47:13.966Z,99.99
2018-02-15T06:48:23.467Z,99.99
2018-02-15T06:49:32.650Z,99.99
2018-02-15T06:50:41.841Z,99.99
2018-02-15T06:51:51.827Z,99.99
2018-02-15T06:53:01.121Z,99.99
2018-02-15T06:54:10.997Z,99.99
2018-02-15T06:55:20.190Z,99.99
2018-02-15T06:56:29.908Z,99.99
2018-02-15T06:57:38.827Z,99.99
2018-02-15T06:58:48.806Z,99.99
2018-02-15T06:59:57.988Z,99.99
2018-02-15T07:01:07.230Z,99.99
2018-02-15T07:02:17.209Z,99.99
2018-02-15T07:03:27.232Z,99.99
2018-02-15T07:04:37.212Z,99.99
2018-02-15T07:05:46.391Z,99.99
2018-02-15T07:06:56.364Z,99.99
2018-02-15T07:08:05.812Z,99.99
2018-02-15T07:09:15.263Z,99.99
2018-02-15T07:10:24.719Z,99.99
2018-02-15T07:11:34.428Z,99.99
2018-02-15T07:12:43.610Z,99.99
2018-02-15T07:13:53.063Z,99.99
2018-02-15T07:15:02.502Z,99.99
2018-02-15T07:16:11.419Z,99.99
2018-02-15T07:17:21.401Z,99.99
2018-02-15T07:18:30.848Z,99.99
2018-02-15T07:19:40.294Z,99.99
2018-02-15T07:20:49.741Z,99.99
2018-02-15T07:21:59.191Z,99.99
2018-02-15T07:23:09.179Z,99.99
2018-02-15T07:24:18.885Z,99.99
2018-02-15T07:25:28.604Z,99.99
2018-02-15T07:26:38.382Z,99.99
2018-02-15T07:27:48.096Z,99.99
2018-02-15T07:28:57.811Z,99.99
2018-02-15T07:30:06.993Z,99.99
2018-02-15T07:31:16.434Z,99.99
2018-02-15T07:32:25.892Z,99.99
2018-02-15T07:33:35.606Z,99.99
2018-02-15T07:34:44.791Z,99.99
2018-02-15T07:35:54.238Z,99.99
2018-02-15T07:37:03.687Z,99.99
2018-02-15T07:38:13.136Z,99.99
2018-02-15T07:39:22.850Z,99.99
2018-02-15T07:40:32.564Z,99.99
2018-02-15T07:41:42.536Z,99.99
2018-02-15T07:42:51.724Z,99.99
2018-02-15T07:44:01.443Z,99.99
2018-02-15T07:45:11.196Z,99.99
2018-02-15T07:46:20.646Z,99.99
2018-02-15T07:47:29.840Z,99.99
2018-02-15T07:48:39.603Z,99.99
2018-02-15T07:49:49.322Z,99.99
2018-02-15T07:50:58.778Z,99.99
2018-02-15T07:52:08.494Z,99.99
2018-02-15T07:53:17.683Z,99.99
2018-02-15T07:54:26.605Z,99.99
2018-02-15T07:55:36.055Z,99.99
2018-02-15T07:56:44.977Z,99.99
2018-02-15T07:57:54.954Z,99.99
2018-02-15T07:59:04.415Z,99.99
2018-02-15T08:00:13.865Z,99.99
2018-02-15T08:01:23.582Z,99.99
2018-02-15T08:02:32.845Z,99.99
2018-02-15T08:03:42.369Z,99.99
2018-02-15T08:04:51.288Z,99.99
2018-02-15T08:06:00.733Z,99.99
2018-02-15T08:07:09.654Z,99.99
2018-02-15T08:08:19.099Z,99.99
2018-02-15T08:09:28.554Z,99.99
2018-02-15T08:10:38.274Z,99.99
2018-02-15T08:11:47.727Z,99.99
2018-02-15T08:12:57.446Z,99.99
2018-02-15T08:14:06.367Z,99.99
2018-02-15T08:15:15.573Z,99.99
2018-02-15T08:16:25.286Z,99.99
2018-02-15T08:17:35.287Z,99.99
2018-02-15T08:18:44.757Z,99.99
2018-02-15T08:19:54.469Z,99.99
2018-02-15T08:21:04.184Z,99.99
2018-02-15T08:22:13.645Z,99.99
2018-02-15T08:23:22.851Z,99.99
2018-02-15T08:24:32.575Z,99.99
2018-02-15T08:25:42.294Z,99.99
2018-02-15T08:26:52.271Z,99.99
2018-02-15T08:28:02.250Z,99.99
2018-02-15T08:29:11.441Z,99.99
2018-02-15T08:30:21.421Z,99.99
2018-02-15T08:31:30.879Z,99.99
2018-02-15T08:32:40.063Z,99.99
2018-02-15T08:33:49.778Z,99.99
2018-02-15T08:34:59.763Z,99.99
2018-02-15T08:36:09.218Z,99.99
2018-02-15T08:37:18.932Z,99.99
2018-02-15T08:38:27.856Z,99.99
2018-02-15T08:39:37.856Z,99.99
2018-02-15T08:40:47.309Z,99.99
2018-02-15T08:41:56.491Z,99.99
2018-02-15T08:43:05.688Z,99.99
2018-02-15T08:44:15.141Z,99.99
2018-02-15T08:45:24.722Z,99.99
2018-02-15T08:46:33.906Z,99.99
2018-02-15T08:47:43.671Z,99.99
2018-02-15T08:48:53.137Z,99.99
2018-02-15T08:50:02.328Z,99.99
2018-02-15T08:51:11.773Z,99.99
2018-02-15T08:52:21.490Z,99.99
2018-02-15T08:53:31.200Z,99.99
2018-02-15T08:54:40.122Z,99.99
2018-02-15T08:55:49.593Z,99.99
2018-02-15T08:56:58.789Z,99.99
2018-02-15T08:58:08.861Z,99.99
2018-02-15T08:59:18.041Z,99.99
2018-02-15T09:00:27.241Z,99.99
2018-02-15T09:01:36.170Z,99.99
2018-02-15T09:02:45.631Z,99.99
2018-02-15T09:03:55.074Z,99.99
2018-02-15T09:05:03.729Z,99.99
2018-02-15T09:06:13.179Z,99.99
2018-02-15T09:07:22.627Z,99.99
2018-02-15T09:08:32.076Z,99.99
2018-02-15T09:09:41.523Z,99.99
2018-02-15T09:10:51.234Z,99.99
2018-02-15T09:12:00.419Z,99.99
2018-02-15T09:13:09.866Z,99.99
2018-02-15T09:14:19.578Z,99.99
2018-02-15T09:15:29.033Z,99.99
2018-02-15T09:16:38.475Z,99.99
2018-02-15T09:17:47.920Z,99.99
2018-02-15T09:18:57.384Z,99.99
2018-02-15T09:20:07.103Z,99.99
2018-02-15T09:21:17.078Z,99.99
2018-02-15T09:22:26.533Z,99.99
2018-02-15T09:23:35.978Z,99.99
2018-02-15T09:24:46.021Z,99.99
2018-02-15T09:25:55.744Z,99.99
2018-02-15T09:27:05.340Z,99.99
2018-02-15T09:28:14.797Z,99.99
2018-02-15T09:29:24.514Z,99.99
2018-02-15T09:30:34.232Z,99.99
2018-02-15T09:31:43.683Z,99.99
2018-02-15T09:32:53.128Z,99.99
2018-02-15T09:34:02.859Z,99.99
2018-02-15T09:35:12.584Z,99.99
2018-02-15T09:36:21.845Z,99.99
2018-02-15T09:37:31.297Z,99.99
2018-02-15T09:38:40.745Z,99.99
2018-02-15T09:39:50.191Z,99.99
2018-02-15T09:40:59.933Z,99.99
2018-02-15T09:42:09.648Z,99.99
2018-02-15T09:43:19.363Z,99.99
2018-02-15T09:44:29.083Z,99.99
2018-02-15T09:45:39.066Z,99.99
2018-02-15T09:46:48.613Z,99.99
2018-02-15T09:47:57.539Z,99.99
2018-02-15T09:49:06.989Z,99.99
2018-02-15T09:50:16.187Z,99.99
2018-02-15T09:51:25.640Z,99.99
2018-02-15T09:52:34.845Z,99.99
2018-02-15T09:53:44.554Z,99.99
2018-02-15T09:54:54.272Z,99.99
2018-02-15T09:56:03.479Z,99.99
2018-02-15T09:57:13.196Z,99.99
2018-02-15T09:58:22.383Z,99.99
2018-02-15T09:59:32.096Z,99.99
2018-02-15T10:00:41.818Z,99.99
2018-02-15T10:01:51.288Z,99.99
2018-02-15T10:03:00.735Z,99.99
2018-02-15T10:04:10.188Z,99.99
2018-02-15T10:05:19.376Z,99.99
2018-02-15T10:06:29.088Z,99.99
2018-02-15T10:07:39.073Z,99.99
2018-02-15T10:08:48.261Z,99.99
2018-02-15T10:09:57.987Z,99.99
2018-02-15T10:11:07.700Z,99.99
2018-02-15T10:12:17.448Z,99.99
2018-02-15T10:13:27.161Z,99.99
2018-02-15T10:14:36.610Z,99.99
2018-02-15T10:15:46.356Z,99.99
2018-02-15T10:16:55.888Z,99.99
2018-02-15T10:18:05.599Z,99.99
2018-02-15T10:19:14.796Z,99.99
2018-02-15T10:20:24.537Z,99.99
2018-02-15T10:21:34.471Z,99.99
2018-02-15T10:22:43.458Z,99.99
2018-02-15T10:23:53.017Z,99.99
2018-02-15T10:25:02.476Z,99.99
2018-02-15T10:26:12.211Z,99.99
2018-02-15T10:27:21.131Z,99.99
2018-02-15T10:28:30.929Z,99.99
2018-02-15T10:29:40.911Z,99.99
2018-02-15T10:30:50.367Z,99.99
2018-02-15T10:31:59.572Z,99.99
2018-02-15T10:33:08.755Z,99.99
2018-02-15T10:34:18.501Z,99.99
2018-02-15T10:35:27.951Z,99.99
2018-02-15T10:36:37.424Z,99.99
2018-02-15T10:37:46.657Z,99.99
2018-02-15T10:38:56.640Z,99.99
2018-02-15T10:40:06.111Z,99.99
2018-02-15T10:41:15.299Z,99.99
2018-02-15T10:42:25.054Z,99.99
2018-02-15T10:43:34.612Z,99.99
2018-02-15T10:44:43.529Z,99.99
2018-02-15T10:45:52.718Z,99.99
2018-02-15T10:47:02.169Z,99.99
2018-02-15T10:48:12.161Z,99.99
2018-02-15T10:49:21.611Z,99.99
2018-02-15T10:50:31.325Z,99.99
2018-02-15T10:51:40.246Z,99.99
2018-02-15T10:52:50.225Z,99.99
2018-02-15T10:53:59.944Z,99.99
2018-02-15T10:55:09.658Z,99.99
2018-02-15T10:56:18.843Z,99.99
2018-02-15T10:57:28.563Z,99.99
2018-02-15T10:58:38.280Z,99.99
2018-02-15T10:59:47.465Z,99.99
2018-02-15T11:00:57.594Z,99.99
2018-02-15T11:02:07.306Z,99.99
2018-02-15T11:03:16.508Z,99.99
2018-02-15T11:04:25.974Z,99.99
2018-02-15T11:05:35.749Z,99.99
2018-02-15T11:06:45.203Z,99.99
2018-02-15T11:07:54.918Z,99.99
2018-02-15T11:09:04.402Z,99.99
2018-02-15T11:10:13.633Z,99.99
2018-02-15T11:11:23.352Z,99.99
2018-02-15T11:12:33.063Z,99.99
2018-02-15T11:13:42.522Z,99.99
2018-02-15T11:14:51.711Z,99.99
2018-02-15T11:16:01.761Z,99.99
2018-02-15T11:17:11.744Z,99.99
2018-02-15T11:18:21.200Z,99.99
2018-02-15T11:19:30.399Z,99.99
2018-02-15T11:20:39.851Z,99.99
2018-02-15T11:21:49.348Z,99.99
2018-02-15T11:22:59.064Z,99.99
2018-02-15T11:24:08.522Z,99.99
2018-02-15T11:25:17.705Z,99.99
2018-02-15T11:26:27.433Z,99.99
2018-02-15T11:27:37.171Z,99.99
2018-02-15T11:28:47.154Z,99.99
2018-02-15T11:29:56.074Z,99.99
2018-02-15T11:31:05.522Z,99.99
2018-02-15T11:32:14.711Z,99.99
2018-02-15T11:33:24.695Z,99.99
2018-02-15T11:34:34.423Z,99.99
2018-02-15T11:35:43.876Z,99.99
2018-02-15T11:36:53.604Z,99.99
2018-02-15T11:38:03.322Z,99.99
2018-02-15T11:39:12.776Z,99.99
2018-02-15T11:40:22.826Z,99.99
2018-02-15T11:41:32.011Z,99.99
2018-02-15T11:42:41.460Z,99.99
2018-02-15T11:43:51.178Z,99.99
2018-02-15T11:45:00.631Z,99.99
2018-02-15T11:46:10.076Z,99.99
2018-02-15T11:47:19.256Z,99.99
2018-02-15T11:48:28.701Z,99.99
2018-02-15T11:49:38.183Z,99.99
2018-02-15T11:50:47.123Z,99.99
2018-02-15T11:51:56.842Z,99.99
2018-02-15T11:53:06.027Z,99.99
2018-02-15T11:54:15.791Z,99.99
2018-02-15T11:55:25.353Z,99.99
2018-02-15T11:56:35.356Z,99.99
2018-02-15T11:57:44.286Z,99.99
2018-02-15T11:58:54.003Z,99.99
2018-02-15T12:00:03.191Z,99.99
2018-02-15T12:01:12.642Z,99.99
2018-02-15T12:02:22.092Z,99.99
2018-02-15T12:03:31.816Z,99.99
2018-02-15T12:04:41.535Z,99.99
2018-02-15T12:05:50.719Z,99.99
2018-02-15T12:07:00.444Z,99.99
2018-02-15T12:08:09.897Z,99.99
2018-02-15T12:09:19.346Z,99.99
2018-02-15T12:10:29.328Z,99.99
2018-02-15T12:11:38.782Z,99.99
2018-02-15T12:12:48.322Z,99.99
2018-02-15T12:13:58.467Z,99.99
2018-02-15T12:15:07.651Z,99.99
2018-02-15T12:16:17.099Z,99.99
2018-02-15T12:17:26.284Z,99.99
2018-02-15T12:18:35.478Z,99.99
2018-02-15T12:19:45.270Z,99.99
2018-02-15T12:20:55.005Z,99.99
2018-02-15T12:22:05.016Z,99.99
2018-02-15T12:23:14.202Z,99.99
2018-02-15T12:24:24.189Z,99.99
2018-02-15T12:25:33.378Z,99.99
2018-02-15T12:26:43.367Z,99.99
2018-02-15T12:27:53.359Z,99.99
2018-02-15T12:29:02.815Z,99.99
2018-02-15T12:30:12.265Z,99.99
2018-02-15T12:31:21.720Z,99.99
2018-02-15T12:32:31.701Z,99.99
2018-02-15T12:33:41.208Z,99.99
2018-02-15T12:34:50.126Z,99.99
2018-02-15T12:35:59.311Z,99.99
2018-02-15T12:37:08.766Z,99.99
2018-02-15T12:38:17.957Z,99.99
2018-02-15T12:39:27.438Z,99.99
2018-02-15T12:40:36.891Z,99.99
2018-02-15T12:41:46.075Z,99.99
2018-02-15T12:42:55.807Z,99.99
2018-02-15T12:44:04.996Z,99.99
2018-02-15T12:45:14.711Z,99.99
2018-02-15T12:46:24.161Z,99.99
2018-02-15T12:47:33.884Z,99.99
2018-02-15T12:48:43.100Z,99.99
2018-02-15T12:49:53.092Z,99.99
2018-02-15T12:51:02.279Z,99.99
2018-02-15T12:52:12.262Z,99.99
2018-02-15T12:53:21.711Z,99.99
2018-02-15T12:54:31.433Z,99.99
2018-02-15T12:55:40.353Z,99.99
2018-02-15T12:56:49.809Z,99.99
2018-02-15T12:57:59.523Z,99.99
2018-02-15T12:59:08.708Z,99.99
2018-02-15T13:00:18.278Z,99.99
2018-02-15T13:01:28.323Z,99.99
2018-02-15T13:02:37.977Z,99.99
2018-02-15T13:03:47.164Z,99.99
2018-02-15T13:04:56.611Z,99.99
2018-02-15T13:06:05.846Z,99.99
2018-02-15T13:07:15.033Z,99.99
2018-02-15T13:08:24.768Z,99.99
2018-02-15T13:09:33.951Z,99.99
2018-02-15T13:10:43.485Z,99.99
2018-02-15T13:11:52.712Z,99.99
2018-02-15T13:13:02.190Z,99.99
2018-02-15T13:14:11.641Z,99.99
2018-02-15T13:15:20.561Z,99.99
2018-02-15T13:16:30.281Z,99.99
2018-02-15T13:17:40.001Z,99.99
2018-02-15T13:18:49.762Z,99.99
2018-02-15T13:19:59.476Z,99.99
2018-02-15T13:21:09.266Z,99.99
2018-02-15T13:22:19.051Z,99.99
2018-02-15T13:23:28.438Z,99.99
2018-02-15T13:24:38.416Z,99.99
2018-02-15T13:25:47.600Z,99.99
2018-02-15T13:26:57.059Z,99.99
2018-02-15T13:28:06.246Z,99.99
2018-02-15T13:29:15.968Z,99.99
2018-02-15T13:30:25.678Z,99.99
2018-02-15T13:31:34.875Z,99.99
2018-02-15T13:32:44.334Z,99.99
2018-02-15T13:33:54.317Z,99.99
2018-02-15T13:35:03.506Z,99.99
2018-02-15T13:36:12.723Z,99.99
2018-02-15T13:37:22.442Z,99.99
2018-02-15T13:38:31.906Z,99.99
2018-02-15T13:39:41.627Z,99.99
2018-02-15T13:40:51.339Z,99.99
2018-02-15T13:42:00.527Z,99.99
2018-02-15T13:43:09.735Z,99.99
2018-02-15T13:44:19.448Z,99.99
2018-02-15T13:45:28.919Z,99.99
2018-02-15T13:46:38.370Z,99.99
2018-02-15T13:47:48.089Z,99.99
2018-02-15T13:48:57.541Z,99.99
2018-02-15T13:50:07.002Z,99.99
2018-02-15T13:51:16.192Z,99.99
2018-02-15T13:52:26.175Z,99.99
2018-02-15T13:53:36.183Z,99.99
2018-02-15T13:54:45.644Z,99.99
2018-02-15T13:55:54.832Z,99.99
2018-02-15T13:57:03.756Z,99.99
2018-02-15T13:58:12.954Z,99.99
2018-02-15T13:59:22.661Z,99.99
2018-02-15T14:00:31.851Z,99.99
2018-02-15T14:01:41.263Z,99.99
2018-02-15T14:02:50.724Z,99.99
2018-02-15T14:04:00.220Z,99.99
2018-02-15T14:05:09.440Z,99.99
2018-02-15T14:06:19.427Z,99.99
2018-02-15T14:07:29.407Z,99.99
2018-02-15T14:08:39.117Z,99.99
2018-02-15T14:09:48.578Z,99.99
2018-02-15T14:10:58.569Z,99.99
2018-02-15T14:12:08.285Z,99.99
2018-02-15T14:13:17.473Z,99.99
2018-02-15T14:14:26.664Z,99.99
2018-02-15T14:15:36.386Z,99.99
2018-02-15T14:16:45.838Z,99.99
2018-02-15T14:17:55.312Z,99.99
2018-02-15T14:19:04.504Z,99.99
2018-02-15T14:20:14.001Z,99.99
2018-02-15T14:21:23.989Z,99.99
2018-02-15T14:22:33.445Z,99.99
2018-02-15T14:23:42.898Z,99.99
2018-02-15T14:24:52.620Z,99.99
2018-02-15T14:26:02.152Z,99.99
2018-02-15T14:27:11.604Z,99.99
2018-02-15T14:28:21.120Z,99.99
2018-02-15T14:29:30.635Z,99.99
2018-02-15T14:30:40.116Z,99.99
2018-02-15T14:31:49.308Z,99.99
2018-02-15T14:32:59.140Z,99.99
2018-02-15T14:34:08.863Z,99.99
2018-02-15T14:35:18.316Z,99.99
2018-02-15T14:36:27.567Z,99.99
2018-02-15T14:37:37.310Z,99.99
2018-02-15T14:38:47.070Z,99.99
2018-02-15T14:39:57.060Z,99.99
2018-02-15T14:41:06.783Z,99.99
2018-02-15T14:42:16.518Z,99.99
2018-02-15T14:43:26.240Z,99.99
2018-02-15T14:44:35.996Z,99.99
2018-02-15T14:45:45.447Z,99.99
2018-02-15T14:46:55.178Z,99.99
2018-02-15T14:48:04.893Z,99.99
2018-02-15T14:49:14.077Z,99.99
2018-02-15T14:50:23.003Z,99.99
2018-02-15T14:51:32.724Z,99.99
2018-02-15T14:52:42.517Z,99.99
2018-02-15T14:53:52.034Z,99.99
2018-02-15T14:55:01.747Z,99.99
2018-02-15T14:56:11.729Z,99.99